Terminal Aerodrome Forecast
Issued by NWS

Home | Current Version | Previous Version | Text Only | Print | Product List | Glossary On
Versions: 1 2 3 4 5 6 7 8 9 10 11 12 13 14
000
FTAK31 PANC 251534 AAA
TAFAEN
TAF AMD
PAEN 251534Z 2516/2612 18005KT P6SM VCSH OVC003
     FM251800 18010KT P6SM VCSH FEW005 BKN020
     FM252200 18010G16KT P6SM VCSH FEW020 OVC060=

USA.gov is the U.S. government's official web portal to all federal, state and local government web resources and services.